Richmond Hill, New York
Current Conditions -  °F | °C
As of 12:51 AM on Saturday 29 Nov 2014 (Local Time) from KJFK Reporting Station
Broken Clouds Broken Clouds  
Wind Chill: 22°   Ceiling: 25000
Heat Index: 28°   Visibility: 10mi
Dew Point: 11°   Wind: 6mph
Humidity: 49%   Direction: 350°N
Pressure: 30.3"   Gusts: NA
Location:  40.7°N, 73.83°W
Report Text: KJFK 290551Z 35005KT 10SM SCT170 BKN250 M02/M12 A3030 RMK AO2 SLP260 T10221117 11006 21022 53007
Loading
Personal Weather Stations






























Interactive Weather Map New forecast layout! Learn more

10-Day Weather Forecast

Advertisements
Track Severe Weather on mobile